Latest Weather Observations for Bushy Park

IDT60901

Issued at 6:51 pm EDT Saturday 16 October 2021 (issued every 10 minutes, with the page automatically refreshed every 10 minutes)

About weather observations | Map of Hobart area stations | Latest observations for Hobart area | Other Formats
Station Details ID: 095003 Name: BUSHY PARK (BUSHY PARK ESTATES) Lat: -42.71 Lon: 146.90 Height: 27.0 m
Data from the previous 72 hours. | See also: Recent months at Bushy Park
Date/Time
EDT
Temp
°C
App
Temp
°C
Dew
Point
°C
Rel
Hum
%
Delta-T
°C
Wind Press
QNH
hPa
Press
MSL
hPa
Rain since
9am
mm
Dir  Spd
km/h
Gust
km/h
Spd
kts
Gust
kts
16/06:30pm 12.1 7.3 4.6 60 3.4 WSW 19 32 10 17 - - 0.0
16/06:00pm 12.3 8.3 4.8 60 3.4 WSW 15 30 8 16 - - 0.0
16/05:30pm 12.8 7.5 5.2 60 3.5 WSW 22 33 12 18 - - 0.0
16/05:00pm 14.0 9.8 5.9 58 3.9 WSW 17 30 9 16 - - 0.0
16/04:30pm 14.8 9.5 6.6 58 4.0 WSW 24 39 13 21 - - 0.0
16/04:00pm 15.5 10.0 5.7 52 4.7 WSW 24 39 13 21 - - 0.0
16/03:34pm 15.3 9.0 5.8 53 4.6 WSW 28 50 15 27 - - 0.0
16/03:30pm 15.4 9.5 5.9 53 4.6 WSW 26 43 14 23 - - 0.0
16/03:08pm 15.1 9.0 6.4 56 4.2 SW 28 46 15 25 - - 0.0
16/03:00pm 15.7 10.4 6.7 55 4.4 SW 24 35 13 19 - - 0.0
16/02:30pm 15.9 9.8 6.6 54 4.6 SW 28 52 15 28 - - 0.0
16/02:29pm 16.1 10.0 6.8 54 4.6 SW 28 52 15 28 - - 0.0
16/02:00pm 16.5 11.3 7.4 55 4.5 SW 24 41 13 22 - - 0.0
16/01:32pm 15.9 9.7 6.1 52 4.7 SW 28 50 15 27 - - 0.0
16/01:30pm 16.1 10.4 6.8 54 4.6 SW 26 50 14 27 - - 0.0
16/01:00pm 16.2 12.2 9.2 63 3.6 WSW 20 35 11 19 - - 0.0
16/12:30pm 15.8 11.9 7.1 56 4.3 WSW 17 28 9 15 - - 0.0
16/12:00pm 14.7 10.7 8.4 66 3.2 SW 19 30 10 16 - - 0.0
16/11:30am 14.2 9.9 7.9 66 3.1 SW 20 33 11 18 - - 0.0
16/11:00am 14.5 7.7 6.8 60 3.7 SSW 32 46 17 25 - - 0.0
16/10:30am 14.8 9.0 8.1 64 3.4 S 28 39 15 21 - - 0.0
16/10:00am 12.8 5.9 6.4 65 3.0 SSW 32 43 17 23 - - 0.0
16/09:38am 12.9 6.7 6.3 64 3.1 SSW 28 46 15 25 - - 0.0
16/09:30am 12.7 7.6 6.1 64 3.1 SSW 22 33 12 18 - - 0.0
16/09:00am 12.2 6.9 6.9 70 2.5 SSW 24 33 13 18 - - 4.2
16/08:30am 11.7 8.6 7.2 74 2.2 SSW 13 19 7 10 - - 4.2
16/08:00am 11.0 10.7 8.6 85 1.2 CALM 0 6 0 3 - - 4.2
16/07:30am 10.7 8.1 7.9 83 1.4 SSW 11 15 6 8 - - 4.2
16/07:00am 11.0 5.8 7.3 78 1.8 SSW 24 37 13 20 - - 4.2
16/06:30am 11.9 6.1 6.2 68 2.7 SW 26 37 14 20 - - 4.0
16/06:00am 11.8 8.1 6.1 68 2.7 SW 15 28 8 15 - - 4.0
16/05:30am 11.8 7.8 6.5 70 2.5 SW 17 28 9 15 - - 4.0
16/05:00am 11.9 7.8 6.4 69 2.6 SW 17 28 9 15 - - 4.0
16/04:30am 12.3 7.3 6.6 68 2.7 SW 22 35 12 19 - - 4.0
16/04:00am 12.3 8.4 7.0 70 2.5 SSW 17 28 9 15 - - 4.0
16/03:30am 12.1 8.2 7.2 72 2.4 SSW 17 28 9 15 - - 4.0
16/03:00am 12.1 8.7 7.6 74 2.2 SSW 15 26 8 14 - - 4.0
16/02:30am 12.2 10.6 7.9 75 2.1 SE 6 11 3 6 - - 4.0
16/02:00am 12.7 10.8 7.6 71 2.5 W 7 11 4 6 - - 4.0
16/01:30am 12.9 10.9 8.6 75 2.1 SE 9 15 5 8 - - 4.0
16/01:00am 13.0 10.7 9.1 77 2.0 ESE 11 19 6 10 - - 4.0
16/12:30am 13.6 11.4 9.3 75 2.2 SW 11 26 6 14 - - 4.0
16/12:00am 12.9 11.9 11.0 88 1.0 W 7 15 4 8 - - 4.0
 
Date/Time
EDT
Temp
°C
App
Temp
°C
Dew
Point
°C
Rel
Hum
%
Delta-T
°C
Wind Press
QNH
hPa
Press
MSL
hPa
Rain since
9am
mm
Dir  Spd
km/h
Gust
km/h
Spd
kts
Gust
kts
15/11:30pm 12.9 12.5 11.0 88 1.0 NW 4 7 2 4 - - 4.0
15/11:00pm 13.2 12.1 10.6 84 1.4 SSW 7 11 4 6 - - 4.0
15/10:30pm 13.5 11.5 10.3 81 1.7 SW 11 19 6 10 - - 4.0
15/10:00pm 13.6 10.5 10.2 80 1.8 SW 17 24 9 13 - - 4.0
15/09:30pm 13.3 10.3 10.7 84 1.4 SW 17 22 9 12 - - 4.0
15/09:00pm 12.9 11.1 10.8 87 1.1 WSW 11 19 6 10 - - 4.0
15/08:30pm 13.8 14.3 12.7 93 0.6 NNW 2 9 1 5 - - 4.0
15/08:00pm 14.2 13.5 13.2 94 0.6 NNW 9 15 5 8 - - 4.0
15/07:30pm 14.6 13.5 13.1 91 0.8 WNW 11 13 6 7 - - 4.0
15/07:00pm 14.9 14.9 13.6 92 0.7 N 6 9 3 5 - - 4.0
15/06:30pm 15.7 15.5 13.0 84 1.5 SSE 6 9 3 5 - - 3.6
15/06:00pm 15.5 14.0 13.0 85 1.4 SSE 13 20 7 11 - - 3.6
15/05:30pm 15.6 13.4 13.3 86 1.3 SE 17 26 9 14 - - 3.6
15/05:00pm 16.0 13.8 13.3 84 1.5 SSE 17 26 9 14 - - 3.6
15/04:30pm 18.0 16.4 12.9 72 2.9 SSE 13 19 7 10 - - 3.6
15/04:00pm 17.7 17.1 13.6 77 2.3 SSE 9 11 5 6 - - 3.6
15/03:30pm 17.5 16.6 13.8 79 2.1 E 11 17 6 9 - - 3.4
15/03:00pm 18.3 17.6 13.2 72 2.9 E 9 17 5 9 - - 3.2
15/02:30pm 19.0 18.6 13.0 68 3.4 SSE 7 11 4 6 - - 3.2
15/02:00pm 18.6 17.4 14.1 75 2.6 SE 13 19 7 10 - - 3.2
15/01:30pm 17.1 16.8 14.4 84 1.5 SSE 9 15 5 8 - - 3.2
15/01:00pm 15.7 15.3 14.2 91 0.9 SSE 9 11 5 6 - - 3.2
15/12:30pm 14.9 15.6 13.4 91 0.8 NE 2 7 1 4 - - 3.0
15/12:00pm 14.7 14.1 13.4 92 0.7 S 9 13 5 7 - - 3.0
15/11:30am 14.3 14.0 13.3 94 0.6 SSW 7 9 4 5 - - 2.6
15/11:00am 14.1 13.7 13.1 94 0.6 SSE 7 13 4 7 - - 1.8
15/10:30am 14.0 12.9 13.2 95 0.4 S 11 13 6 7 - - 1.2
15/10:00am 13.5 11.8 12.6 94 0.5 S 13 17 7 9 - - 1.0
15/09:30am 13.4 12.1 12.5 94 0.5 S 11 15 6 8 - - 0.4
15/09:00am 13.4 11.2 12.1 92 0.7 SSE 15 20 8 11 - - 5.0
15/08:30am 13.5 10.9 11.9 90 0.9 SSE 17 26 9 14 - - 4.8
15/08:00am 13.4 10.4 12.0 91 0.8 SSE 19 26 10 14 - - 4.8
15/07:30am 13.5 11.2 11.7 89 1.0 SE 15 28 8 15 - - 4.8
15/07:00am 13.3 10.1 11.9 91 0.8 SSE 20 30 11 16 - - 4.8
15/06:30am 13.1 9.8 11.7 91 0.7 SSE 20 35 11 19 - - 4.6
15/06:00am 13.1 10.0 11.7 91 0.7 SSE 19 26 10 14 - - 4.2
15/05:30am 13.0 10.4 11.9 93 0.6 SSE 17 26 9 14 - - 4.2
15/05:00am 12.8 10.6 12.0 95 0.4 SSE 15 20 8 11 - - 4.2
15/04:30am 13.2 11.0 12.1 93 0.6 SSE 15 20 8 11 - - 4.0
15/04:00am 13.3 12.2 11.9 91 0.8 SE 9 13 5 7 - - 4.0
15/03:30am 13.5 10.5 11.9 90 0.9 SSE 19 24 10 13 - - 4.0
15/03:00am 13.2 10.9 11.8 91 0.7 SSE 15 19 8 10 - - 4.0
15/02:30am 13.1 11.2 11.7 91 0.7 SSE 13 19 7 10 - - 4.0
15/02:00am 12.9 10.6 11.6 92 0.7 SSE 15 19 8 10 - - 4.0
15/01:30am 12.9 11.0 11.8 93 0.6 SSE 13 19 7 10 - - 4.0
15/01:00am 12.6 10.7 11.7 94 0.5 S 13 19 7 10 - - 4.0
15/12:30am 12.5 11.3 11.6 94 0.5 SE 9 13 5 7 - - 4.0
15/12:00am 12.4 10.8 11.5 94 0.5 S 11 13 6 7 - - 4.0
 
Date/Time
EDT
Temp
°C
App
Temp
°C
Dew
Point
°C
Rel
Hum
%
Delta-T
°C
Wind Press
QNH
hPa
Press
MSL
hPa
Rain since
9am
mm
Dir  Spd
km/h
Gust
km/h
Spd
kts
Gust
kts
14/11:30pm 12.4 11.7 11.3 93 0.6 SE 6 11 3 6 - - 4.0
14/11:00pm 12.4 11.2 11.5 94 0.5 SSE 9 13 5 7 - - 4.0
14/10:30pm 12.4 11.2 11.5 94 0.5 S 9 11 5 6 - - 4.0
14/10:00pm 12.4 10.3 11.3 93 0.6 SSE 13 17 7 9 - - 4.0
14/09:30pm 12.3 10.2 11.2 93 0.6 SSE 13 17 7 9 - - 4.0
14/09:00pm 12.3 10.6 11.2 93 0.6 SSE 11 15 6 8 - - 4.0
14/08:30pm 12.5 10.4 11.1 91 0.7 SSE 13 17 7 9 - - 3.8
14/08:00pm 12.4 9.5 11.1 92 0.7 S 17 20 9 11 - - 3.8
14/07:30pm 12.4 9.5 11.0 91 0.7 SSE 17 20 9 11 - - 3.8
14/07:00pm 12.3 9.4 11.0 92 0.7 S 17 24 9 13 - - 3.8
14/06:30pm 12.2 9.0 11.1 93 0.6 S 19 28 10 15 - - 3.8
14/06:00pm 12.7 9.2 10.8 88 1.0 SSE 20 33 11 18 - - 1.4
14/05:30pm 13.3 8.9 10.5 83 1.5 SSE 24 33 13 18 - - 0.8
14/05:00pm 13.7 8.6 10.7 82 1.6 SSE 28 33 15 18 - - 0.8
14/04:30pm 13.1 8.4 10.8 86 1.2 SSE 26 33 14 18 - - 0.8
14/04:00pm 13.0 9.3 11.4 90 0.8 SSE 22 32 12 17 - - 0.6
14/03:30pm 13.1 9.8 11.5 90 0.8 SSE 20 30 11 16 - - 0.4
14/03:00pm 13.6 9.4 11.0 84 1.4 SSE 24 30 13 16 - - 0.0
14/02:30pm 13.6 9.8 11.0 84 1.4 SSE 22 30 12 16 - - 0.0
14/02:00pm 13.5 9.9 10.5 82 1.6 SSE 20 28 11 15 - - 0.0
14/01:30pm 13.9 10.2 9.5 75 2.3 SE 19 32 10 17 - - 0.0
14/01:00pm 14.2 9.8 9.0 71 2.6 SSE 22 30 12 16 - - 0.0
14/12:30pm 14.3 10.3 8.9 70 2.7 SSE 20 30 11 16 - - 0.0
14/12:00pm 14.2 10.1 8.8 70 2.7 SSE 20 26 11 14 - - 0.0
14/11:30am 13.8 10.4 9.0 73 2.4 SSE 17 24 9 13 - - 0.0
14/11:00am 13.5 9.5 9.2 75 2.2 SSE 20 30 11 16 - - 0.0
14/10:30am 13.6 10.6 9.1 74 2.3 SE 15 20 8 11 - - 0.0
14/10:00am 13.7 9.9 9.2 74 2.3 SSE 19 28 10 15 - - 0.0
14/09:30am 13.5 9.7 9.2 75 2.2 SSE 19 26 10 14 - - 0.0
14/09:00am 12.9 9.2 9.4 79 1.8 SE 19 26 10 14 - - 0.0
14/08:30am 12.9 9.0 9.5 80 1.7 SE 20 32 11 17 - - 0.0
14/08:00am 12.3 8.6 9.5 83 1.4 SE 19 28 10 15 - - 0.0
14/07:30am 11.8 7.9 9.5 86 1.2 SSE 20 30 11 16 - - 0.0
14/07:00am 11.6 8.6 9.2 85 1.2 SSE 15 24 8 13 - - 0.0
14/06:30am 11.2 9.2 8.8 85 1.2 SE 9 19 5 10 - - 0.0
14/06:00am 11.0 9.3 8.4 84 1.3 SE 7 9 4 5 - - 0.0
14/05:30am 10.9 9.1 8.0 82 1.4 SSW 7 9 4 5 - - 0.0
14/05:00am 10.8 8.6 7.7 81 1.5 SSW 9 11 5 6 - - 0.0
14/04:30am 10.9 9.0 7.4 79 1.7 S 7 11 4 6 - - 0.0
14/04:00am 10.7 8.4 7.4 80 1.6 S 9 11 5 6 - - 0.0
14/03:30am 10.2 7.9 7.4 83 1.3 SSW 9 15 5 8 - - 0.0
14/03:00am 10.1 8.1 7.3 83 1.3 SW 7 11 4 6 - - 0.0
14/02:30am 10.0 8.0 7.1 82 1.4 SW 7 9 4 5 - - 0.0
14/02:00am 10.2 9.5 6.9 80 1.6 CALM 0 0 0 0 - - 0.0
14/01:30am 10.4 8.4 6.9 79 1.7 SW 7 9 4 5 - - 0.0
14/01:00am 10.5 8.5 7.0 79 1.7 W 7 9 4 5 - - 0.0
14/12:30am 10.3 8.2 6.5 77 1.8 S 7 13 4 7 - - 0.0
14/12:00am 10.3 8.1 6.3 76 1.9 NW 7 11 4 6 - - 0.0
 
Date/Time
EDT
Temp
°C
App
Temp
°C
Dew
Point
°C
Rel
Hum
%
Delta-T
°C
Wind Press
QNH
hPa
Press
MSL
hPa
Rain since
9am
mm
Dir  Spd
km/h
Gust
km/h
Spd
kts
Gust
kts
13/11:30pm 11.6 9.4 6.1 69 2.6 N 7 13 4 7 - - 0.0
13/11:00pm 12.0 9.4 5.9 66 2.9 NNW 9 15 5 8 - - 0.0
13/10:30pm 12.0 9.4 6.1 67 2.8 NNW 9 11 5 6 - - 0.0
13/10:00pm 12.5 9.6 6.5 67 2.9 SE 11 19 6 10 - - 0.0
13/09:30pm 12.7 9.5 7.0 68 2.7 NNW 13 17 7 9 - - 0.0
13/09:00pm 13.0 10.9 6.6 65 3.1 N 7 9 4 5 - - 0.0
13/08:30pm 13.1 10.3 6.9 66 3.0 SE 11 17 6 9 - - 0.0
13/08:00pm 13.0 9.4 6.8 66 3.0 S 15 20 8 11 - - 0.0
13/07:30pm 13.2 9.7 7.0 66 3.0 E 15 24 8 13 - - 0.0
13/07:00pm 14.4 10.5 7.2 62 3.5 NE 17 30 9 16 - - 0.0

Latest Capital City Observations: Canberra | Sydney | Melbourne | Brisbane | Adelaide | Perth | Hobart | Darwin

Other formats

Comma delimited format used in spreadsheet applications
http://www.bom.gov.au/fwo/IDT60901/IDT60901.94964.axf

JavaScript Object Notation format (JSON) in row-major order
http://www.bom.gov.au/fwo/IDT60901/IDT60901.94964.json

Data quality

Most of these data are generated automatically and are frequently updated. Quality checks on data are not normally performed. It is possible for incorrect values to appear. Refer to information at About Latest Weather Observations and please check the disclaimer before using these data.